Terminal Aerodrome Forecast
Issued by NWS Bismarck, ND

Home | Current Version | Previous Version | Graphics & Text | Print | Product List | Glossary On
Versions: 1 2 3 4 5 6 7 8 9 10 11 12 13 14 15
000
FTUS43 KBIS 210100 AAA
TAFBIS
TAF AMD
KBIS 210153Z 2102/2124 16006KT P6SM SCT015 BKN120
      TEMPO 2103/2106 BKN015
     FM210800 19005KT P6SM BKN120
     FM211700 23009KT P6SM SCT150=

USA.gov is the U.S. government's official web portal to all federal, state and local government web resources and services.